Date,TemperatureHighF,TemperatureAvgF,TemperatureLowF,DewpointHighF,DewpointAvgF,DewpointLowF,HumidityHigh,HumidityAvg,HumidityLow,PressureMaxIn,PressureMinIn,WindSpeedMaxMPH,WindSpeedAvgMPH,GustSpeedMaxMPH,PrecipitationSumIn
2013-5-1,73,60,42,55,49,36,83,67,49,30.24,29.75,8,3,0,0.00
2013-5-2,41,37,34,39,35,32,95,94,84,30.46,30.22,9,5,0,0.00
2013-5-3,41,39,37,37,36,34,93,89,79,30.10,29.96,7,4,0,0.00
2013-5-4,50,43,36,48,41,34,95,93,88,30.07,29.88,6,3,0,0.00
2013-5-5,55,49,45,51,47,43,95,91,84,30.15,30.06,4,1,0,0.00
2013-5-6,68,56,50,58,52,48,95,86,68,30.13,30.02,3,0,0,0.00
2013-5-7,76,59,42,59,49,41,96,74,41,30.09,29.95,6,0,0,0.00
2013-5-8,76,64,50,61,56,47,92,77,55,29.96,29.85,12,3,0,0.00
2013-5-9,71,63,57,63,59,54,95,87,70,29.91,29.79,1,0,0,0.00
2013-5-10,71,58,50,55,50,-100,94,79,49,30.05,29.91,5,1,0,0.00
2013-5-11,69,56,45,48,38,-100,95,58,27,30.24,30.03,8,2,0,0.00
2013-5-12,68,51,33,40,32,26,92,55,23,30.29,30.13,1,0,0,0.00
2013-5-13,79,62,42,57,47,37,93,63,34,30.16,29.89,9,3,0,0.00
2013-5-14,96,78,58,58,53,47,87,49,21,29.88,29.70,15,5,0,0.00
2013-5-15,88,76,61,66,59,52,80,58,39,29.83,29.72,11,3,0,0.00
2013-5-16,83,68,60,66,43,-100,94,73,50,29.84,29.74,6,1,0,0.00
2013-5-17,80,68,57,66,57,-100,94,78,56,29.90,29.81,5,1,0,0.00
2013-5-18,84,73,58,70,65,56,95,76,59,29.89,29.67,9,3,0,0.00
2013-5-19,78,66,61,72,63,60,95,90,76,29.74,29.59,10,2,0,0.00
2013-5-20,80,73,62,68,62,56,92,69,53,29.69,29.56,8,3,0,0.00
2013-5-21,74,67,57,58,53,49,86,62,46,29.72,29.62,4,1,0,0.00
2013-5-22,67,60,53,55,51,48,87,74,61,29.93,29.70,1,0,0,0.00
2013-5-23,70,60,53,58,53,49,89,77,60,30.22,29.93,1,0,0,0.00
2013-5-24,73,61,44,56,50,42,95,70,44,30.31,30.10,11,3,0,0.00
2013-5-25,85,72,61,67,60,48,79,66,51,30.13,29.95,11,2,0,0.00
2013-5-26,85,76,68,71,68,64,89,75,59,29.99,29.81,10,3,0,0.00
2013-5-27,76,73,71,70,66,64,87,79,75,29.86,29.59,11,6,0,0.00
2013-5-28,82,73,66,75,69,61,95,87,77,29.74,29.59,9,3,0,0.00
2013-5-29,80,74,66,72,67,63,91,80,71,29.73,29.56,14,7,0,0.00
2013-5-30,74,67,63,67,63,60,95,87,75,29.68,29.51,13,3,0,0.00
2013-5-31,79,68,63,69,64,59,93,86,69,29.73,29.55,16,1,0,0.00